Time;durP1;ratioP1;P1;durP2;ratioP2;P2;SDS_P1;SDS_P2;PMS_P1;PMS_P2;Temp;Humidity;BMP_temperature;BMP_pressure;BME280_temperature;BME280_humidity;BME280_pressure;Samples;Min_cycle;Max_cycle;Signal;HPM_P1;HPM_P2
2022/08/27 00:01:07;;;;;;;23.50;8.27;;;;;;;21.76;60.07;98803.25;4996300;28;20053;-84
2022/08/27 00:03:33;;;;;;;21.20;7.97;;;;;;;21.38;62.12;98813.47;5013567;28;20037;-84
2022/08/27 00:05:59;;;;;;;32.85;10.35;;;;;;;21.34;61.91;98815.53;4995966;28;20424;-84
2022/08/27 00:08:25;;;;;;;25.13;8.48;;;;;;;21.33;61.76;98788.34;4995988;28;20022;-84
2022/08/27 00:10:50;;;;;;;20.30;9.50;;;;;;;21.28;61.87;98805.88;4996005;28;20029;-84
2022/08/27 00:13:16;;;;;;;19.25;9.40;;;;;;;21.01;62.53;98815.13;4996042;28;20104;-84
2022/08/27 00:15:42;;;;;;;20.02;8.15;;;;;;;20.61;63.66;98827.63;4995948;28;20026;-85
2022/08/27 00:18:07;;;;;;;38.38;9.25;;;;;;;20.70;63.34;98815.78;4995686;28;20021;-84
2022/08/27 00:20:33;;;;;;;37.65;11.05;;;;;;;20.67;63.50;98807.31;4995795;28;20046;-84
2022/08/27 00:22:58;;;;;;;19.10;9.13;;;;;;;20.34;64.39;98814.06;4995785;28;20064;-84
2022/08/27 00:25:24;;;;;;;27.63;8.52;;;;;;;19.91;65.33;98820.81;4995963;28;20100;-84
2022/08/27 00:27:50;;;;;;;24.65;9.20;;;;;;;19.89;65.16;98823.28;4995438;28;20220;-84
2022/08/27 00:30:19;;;;;;;34.20;8.57;;;;;;;19.76;64.56;98786.03;4995476;28;20037;-85
2022/08/27 00:32:45;;;;;;;18.88;8.20;;;;;;;19.80;65.50;98810.78;4995526;28;20026;-84
2022/08/27 00:35:14;;;;;;;30.23;9.40;;;;;;;19.72;65.43;98799.44;4995381;28;20030;-84
2022/08/27 00:37:41;;;;;;;19.90;8.32;;;;;;;19.87;65.45;98820.03;4995133;28;20551;-85
2022/08/27 00:40:10;;;;;;;19.55;8.27;;;;;;;19.75;65.58;98823.34;4995420;28;20472;-84
2022/08/27 00:42:36;;;;;;;27.10;9.27;;;;;;;19.60;66.14;98811.28;4995513;28;20057;-84
2022/08/27 00:45:04;;;;;;;19.17;9.75;;;;;;;19.62;66.09;98826.66;4995245;28;20477;-84
2022/08/27 00:47:33;;;;;;;15.38;9.38;;;;;;;19.40;66.95;98828.75;4995341;28;20026;-84
2022/08/27 00:50:07;;;;;;;19.02;8.38;;;;;;;19.33;67.32;98828.81;4995056;28;20084;-84
2022/08/27 00:52:40;;;;;;;15.93;8.35;;;;;;;19.32;67.42;98830.03;4995657;28;20028;-84
2022/08/27 00:55:13;;;;;;;15.18;8.27;;;;;;;19.24;67.61;98831.25;5012826;28;20022;-84
2022/08/27 00:57:42;;;;;;;25.17;9.40;;;;;;;19.12;68.04;98827.66;4995038;28;20021;-84
2022/08/27 01:00:13;;;;;;;15.93;7.68;;;;;;;19.25;67.81;98830.03;4994884;28;20033;-84
2022/08/27 01:02:40;;;;;;;34.78;10.60;;;;;;;19.14;68.14;98824.41;4995080;28;20030;-84
2022/08/27 01:05:13;;;;;;;24.58;8.38;;;;;;;19.26;67.48;98831.66;4995113;28;20033;-84
2022/08/27 01:07:42;;;;;;;26.33;8.70;;;;;;;19.32;67.17;98810.19;4994180;28;20032;-84
2022/08/27 01:10:11;;;;;;;25.23;9.40;;;;;;;19.18;67.45;98826.00;4994725;28;20022;-84
2022/08/27 01:12:37;;;;;;;13.82;8.20;;;;;;;18.89;68.68;98811.88;4995239;28;20029;-84
2022/08/27 01:15:15;;;;;;;19.73;8.90;;;;;;;18.74;68.81;98808.25;4994536;28;20025;-84
2022/08/27 01:17:43;;;;;;;15.90;8.00;;;;;;;18.90;68.40;98812.72;4994554;28;20030;-84
2022/08/27 01:20:18;;;;;;;16.38;9.13;;;;;;;18.92;68.42;98802.56;4994595;28;20485;-84
2022/08/27 01:23:00;;;;;;;19.65;8.55;;;;;;;19.32;67.65;98836.50;4994711;28;20052;-84
2022/08/27 01:25:27;;;;;;;14.00;8.25;;;;;;;19.29;67.52;98811.81;4994513;28;20480;-84
2022/08/27 01:27:57;;;;;;;17.98;9.57;;;;;;;19.12;67.56;98782.31;4994366;28;20037;-83
2022/08/27 01:30:23;;;;;;;19.45;8.23;;;;;;;19.36;67.04;98799.63;4994309;28;20087;-84
2022/08/27 01:32:49;;;;;;;20.00;9.35;;;;;;;19.33;67.14;98806.13;4994414;28;20409;-84
2022/08/27 01:35:16;;;;;;;16.52;8.40;;;;;;;19.53;67.05;98833.97;5011939;28;20033;-84
2022/08/27 01:37:46;;;;;;;28.17;9.27;;;;;;;19.48;66.92;98826.69;4994286;28;20179;-84
2022/08/27 01:40:12;;;;;;;18.20;8.23;;;;;;;19.64;66.76;98806.38;4992991;28;20034;-84
2022/08/27 01:42:41;;;;;;;20.55;7.60;;;;;;;19.91;65.95;98831.38;4994239;28;20049;-84
2022/08/27 01:45:13;;;;;;;18.35;8.35;;;;;;;20.08;65.17;98840.22;4994061;28;20022;-84
2022/08/27 01:47:39;;;;;;;24.98;9.02;;;;;;;19.16;67.07;98797.25;5011787;28;20053;-85
2022/08/27 01:50:26;;;;;;;26.25;8.55;;;;;;;19.40;67.95;98830.81;4994130;28;20152;-84
2022/08/27 01:52:53;;;;;;;17.08;8.52;;;;;;;19.04;68.60;98815.53;4994220;28;20412;-84
2022/08/27 01:55:22;;;;;;;23.73;9.27;;;;;;;19.14;68.87;98838.59;5011657;28;20080;-84
2022/08/27 01:57:48;;;;;;;16.10;8.65;;;;;;;19.18;68.32;98819.53;4994130;28;20129;-84
2022/08/27 02:00:18;;;;;;;19.80;8.88;;;;;;;19.18;67.85;98826.00;4993955;28;20540;-84
2022/08/27 02:02:45;;;;;;;23.00;9.25;;;;;;;19.20;68.15;98815.09;4994099;28;20026;-84
2022/08/27 02:05:12;;;;;;;20.88;10.77;;;;;;;19.14;68.28;98813.09;4993952;28;20121;-84
2022/08/27 02:07:38;;;;;;;13.20;7.70;;;;;;;19.38;67.67;98831.22;4993948;28;20022;-84
2022/08/27 02:10:07;;;;;;;17.20;9.23;;;;;;;19.57;66.87;98817.78;4993899;28;20534;-84
2022/08/27 02:12:33;;;;;;;14.65;7.53;;;;;;;19.53;66.10;98814.13;4993821;28;20018;-84
2022/08/27 02:14:58;;;;;;;12.32;7.53;;;;;;;19.62;65.86;98811.66;4993818;28;20018;-85
2022/08/27 02:17:24;;;;;;;22.23;11.15;;;;;;;19.66;65.84;98814.47;4993840;28;20446;-84
2022/08/27 02:19:50;;;;;;;18.98;9.32;;;;;;;19.68;65.79;98812.84;4999257;28;20492;-84
2022/08/27 02:22:15;;;;;;;17.83;8.30;;;;;;;19.88;65.26;98815.97;5000233;28;20539;-84
2022/08/27 02:24:41;;;;;;;18.15;7.68;;;;;;;19.85;64.92;98818.84;5000268;28;20030;-84
2022/08/27 02:27:07;;;;;;;28.38;8.85;;;;;;;19.36;66.62;98819.47;5000329;28;20349;-84
2022/08/27 02:29:33;;;;;;;20.17;8.50;;;;;;;19.58;65.98;98808.03;5017832;28;20030;-84
2022/08/27 02:32:00;;;;;;;22.63;8.52;;;;;;;19.85;65.56;98833.84;5000285;28;20036;-84
2022/08/27 02:34:26;;;;;;;37.53;9.70;;;;;;;19.70;65.46;98809.59;5000080;28;20036;-84
2022/08/27 02:36:52;;;;;;;22.50;9.77;;;;;;;19.88;65.59;98833.00;5000132;28;20495;-84
2022/08/27 02:39:18;;;;;;;22.90;9.15;;;;;;;19.75;64.93;98815.63;5000454;28;20469;-85
2022/08/27 02:41:44;;;;;;;15.13;7.70;;;;;;;19.62;65.03;98820.16;4999933;28;20485;-84
2022/08/27 02:44:10;;;;;;;14.90;8.20;;;;;;;19.04;67.48;98815.53;5000068;28;20030;-85
2022/08/27 02:46:37;;;;;;;33.03;9.90;;;;;;;19.18;67.73;98820.31;5000131;28;20022;-85
2022/08/27 02:49:03;;;;;;;18.38;9.45;;;;;;;19.39;66.61;98824.31;5018107;28;20152;-85
2022/08/27 02:51:28;;;;;;;21.20;10.43;;;;;;;18.77;67.67;98789.66;4999916;28;20034;-84
2022/08/27 02:53:54;;;;;;;19.02;10.00;;;;;;;18.82;67.98;98788.44;5000132;28;20065;-84
2022/08/27 02:56:19;;;;;;;26.45;9.82;;;;;;;18.90;68.61;98827.66;4999913;28;20540;-84
2022/08/27 02:58:45;;;;;;;21.65;8.88;;;;;;;18.78;69.83;98831.75;4999880;28;20037;-84
2022/08/27 03:01:10;;;;;;;20.55;9.55;;;;;;;18.88;69.23;98824.44;5017467;28;20037;-84
2022/08/27 03:03:37;;;;;;;18.20;8.77;;;;;;;18.53;69.91;98783.63;4999941;28;20481;-84
2022/08/27 03:06:02;;;;;;;20.52;9.55;;;;;;;18.57;70.56;98826.88;4999746;28;20463;-84
2022/08/27 03:08:28;;;;;;;21.98;9.70;;;;;;;18.63;70.04;98824.47;4999930;28;20030;-84
2022/08/27 03:10:55;;;;;;;21.42;10.43;;;;;;;18.66;70.00;98829.34;4999887;28;20034;-84
2022/08/27 03:13:21;;;;;;;24.25;10.15;;;;;;;18.43;70.88;98827.72;4999819;28;20030;-84
2022/08/27 03:15:47;;;;;;;23.13;9.88;;;;;;;18.28;71.57;98818.41;4999708;28;20026;-85
2022/08/27 03:18:20;;;;;;;19.63;10.50;;;;;;;18.10;72.16;98827.69;4999752;28;20417;-84
2022/08/27 03:20:52;;;;;;;17.30;10.13;;;;;;;18.03;72.80;98835.34;4999808;28;20034;-84
2022/08/27 03:23:21;;;;;;;25.10;12.82;;;;;;;17.72;73.90;98832.81;4999671;28;20033;-84
2022/08/27 03:25:50;;;;;;;29.95;11.57;;;;;;;17.82;73.83;98828.41;4999763;28;20030;-84
2022/08/27 03:28:18;;;;;;;18.83;11.32;;;;;;;17.65;73.58;98835.63;4999801;28;20032;-84
2022/08/27 03:30:47;;;;;;;24.52;12.90;;;;;;;17.58;73.79;98841.25;5012461;28;20416;-84
2022/08/27 03:33:13;;;;;;;26.87;13.63;;;;;;;17.47;73.76;98846.88;4996667;28;20033;-84
2022/08/27 03:35:38;;;;;;;29.08;12.50;;;;;;;17.37;74.37;98848.44;4996428;28;20028;-84
2022/08/27 03:38:04;;;;;;;20.73;11.82;;;;;;;17.14;75.10;98829.78;4996416;28;20026;-84
2022/08/27 03:40:29;;;;;;;24.08;12.32;;;;;;;17.14;75.50;98846.72;5013838;28;20041;-84
2022/08/27 03:42:55;;;;;;;22.48;10.50;;;;;;;17.05;75.58;98854.75;5013211;28;20107;-83
2022/08/27 03:45:20;;;;;;;29.65;10.48;;;;;;;16.72;76.86;98854.50;4995711;28;20040;-84
2022/08/27 03:47:46;;;;;;;22.55;8.93;;;;;;;16.58;77.74;98858.00;5013957;28;20018;-83
2022/08/27 03:50:12;;;;;;;28.52;9.20;;;;;;;16.49;77.50;98841.41;4996276;28;20509;-83
2022/08/27 03:52:37;;;;;;;21.35;9.90;;;;;;;16.79;76.88;98859.38;4996184;28;20408;-83
2022/08/27 03:55:06;;;;;;;25.90;9.43;;;;;;;16.97;76.33;98862.34;4996084;28;20026;-83
2022/08/27 03:57:32;;;;;;;24.08;9.93;;;;;;;17.02;76.03;98859.16;4994118;28;20037;-84
2022/08/27 03:59:59;;;;;;;22.05;9.50;;;;;;;16.96;75.75;98841.72;4984562;28;20079;-83
2022/08/27 04:02:24;;;;;;;23.40;8.38;;;;;;;16.85;75.86;98818.25;5013554;28;20048;-84
2022/08/27 04:04:50;;;;;;;23.38;9.30;;;;;;;17.19;76.13;98863.28;4996030;28;20033;-83
2022/08/27 04:07:15;;;;;;;22.45;10.43;;;;;;;17.00;77.46;98857.91;4995944;28;20201;-84
2022/08/27 04:09:41;;;;;;;28.70;10.43;;;;;;;17.12;77.27;98868.88;4995899;28;20049;-84
2022/08/27 04:12:07;;;;;;;19.85;9.73;;;;;;;17.11;76.95;98856.78;4995788;28;20022;-84
2022/08/27 04:14:33;;;;;;;18.13;9.32;;;;;;;17.19;76.46;98868.13;4995896;28;20561;-84
2022/08/27 04:16:59;;;;;;;22.67;9.43;;;;;;;17.16;75.44;98864.09;5013261;28;20485;-84
2022/08/27 04:19:29;;;;;;;27.48;8.98;;;;;;;17.20;74.61;98862.09;5013494;28;20072;-83
2022/08/27 04:22:13;;;;;;;19.23;8.93;;;;;;;17.52;74.22;98872.75;4995186;28;20539;-84
2022/08/27 04:24:39;;;;;;;22.13;8.35;;;;;;;17.36;72.51;98833.50;4995750;28;21020;-84
2022/08/27 04:27:05;;;;;;;21.95;8.20;;;;;;;17.84;71.99;98879.75;4995738;28;20022;-83
2022/08/27 04:29:31;;;;;;;20.48;7.90;;;;;;;17.91;71.30;98881.78;4995663;28;20079;-86
2022/08/27 04:31:57;;;;;;;12.82;8.50;;;;;;;17.99;71.24;98877.78;4995807;28;20037;-84
2022/08/27 04:34:23;;;;;;;17.40;7.50;;;;;;;18.00;71.25;98885.03;4995710;28;20471;-85
2022/08/27 04:36:49;;;;;;;18.90;8.73;;;;;;;18.10;71.18;98878.63;4995406;28;20021;-85
2022/08/27 04:39:15;;;;;;;22.27;8.50;;;;;;;18.29;71.19;98895.66;4995820;28;20026;-84
2022/08/27 04:41:41;;;;;;;28.73;8.95;;;;;;;18.26;70.50;98877.44;4994436;28;20412;-85
2022/08/27 04:44:09;;;;;;;16.38;8.50;;;;;;;18.31;69.97;98868.53;4995418;28;20022;-85
2022/08/27 04:46:37;;;;;;;19.75;9.70;;;;;;;18.56;69.50;98898.91;4995745;28;20029;-85
2022/08/27 04:49:08;;;;;;;16.95;7.53;;;;;;;18.59;69.40;98895.28;4995688;28;20022;-85
2022/08/27 04:51:35;;;;;;;27.58;8.43;;;;;;;18.67;69.17;98888.38;4995788;28;20556;-84
2022/08/27 04:54:02;;;;;;;16.20;8.13;;;;;;;18.77;68.36;98902.97;4995375;28;20037;-85
2022/08/27 04:56:28;;;;;;;20.88;7.40;;;;;;;18.77;67.95;98889.63;4995354;28;20033;-85
2022/08/27 04:58:54;;;;;;;21.58;7.88;;;;;;;19.02;68.55;98902.97;4995314;28;20132;-85
2022/08/27 05:01:25;;;;;;;20.00;8.02;;;;;;;19.11;67.76;98896.06;4995448;28;20421;-85
2022/08/27 05:03:52;;;;;;;22.52;9.80;;;;;;;19.23;67.37;98892.81;4995371;28;20116;-85
2022/08/27 05:06:18;;;;;;;22.40;9.20;;;;;;;19.39;66.99;98905.75;4995212;28;20018;-85
2022/08/27 05:08:44;;;;;;;28.45;9.63;;;;;;;19.39;65.86;98894.41;5012961;28;20018;-85
2022/08/27 05:11:13;;;;;;;32.22;9.30;;;;;;;19.45;65.28;98889.91;5012851;28;20571;-85
2022/08/27 05:13:40;;;;;;;25.02;9.10;;;;;;;19.56;65.22;98892.75;4995063;28;20036;-84
2022/08/27 05:16:10;;;;;;;30.98;9.38;;;;;;;19.67;64.94;98881.34;4995242;28;20032;-85
2022/08/27 05:18:37;;;;;;;33.22;8.90;;;;;;;19.95;63.52;98894.63;4994761;28;20560;-85
2022/08/27 05:21:04;;;;;;;31.38;9.95;;;;;;;20.19;63.13;98909.09;4995150;28;20034;-85
2022/08/27 05:23:31;;;;;;;22.73;9.57;;;;;;;20.30;62.67;98907.00;4994881;28;20434;-85
2022/08/27 05:25:57;;;;;;;27.70;8.07;;;;;;;20.27;61.52;98898.50;4995129;28;20029;-85
2022/08/27 05:28:25;;;;;;;18.05;9.35;;;;;;;20.22;61.40;98902.56;4994745;28;20037;-85
2022/08/27 05:30:53;;;;;;;20.77;9.35;;;;;;;20.19;62.05;98903.41;4994429;28;20471;-85
2022/08/27 05:33:22;;;;;;;22.70;8.13;;;;;;;20.05;62.46;98873.88;4994085;28;20503;-85
2022/08/27 05:35:51;;;;;;;30.48;9.43;;;;;;;19.96;62.79;98867.03;4994341;28;20036;-85
2022/08/27 05:38:20;;;;;;;22.17;9.90;;;;;;;20.26;63.22;98892.00;4993400;28;20552;-85
2022/08/27 05:40:49;;;;;;;16.65;8.43;;;;;;;20.57;62.96;98911.25;4994317;28;20029;-85
2022/08/27 05:43:16;;;;;;;27.25;9.55;;;;;;;20.64;62.33;98899.06;4994177;28;20058;-85
2022/08/27 05:45:47;;;;;;;21.38;8.18;;;;;;;20.54;62.04;98867.47;4994693;28;20464;-85
2022/08/27 05:48:16;;;;;;;30.35;9.10;;;;;;;20.96;61.92;98906.50;4993913;28;20493;-85
2022/08/27 05:50:43;;;;;;;23.33;9.18;;;;;;;20.96;60.52;98910.19;5002732;28;20140;-85
2022/08/27 05:53:11;;;;;;;16.05;7.90;;;;;;;20.99;60.43;98917.03;4993726;28;20025;-85
2022/08/27 05:55:39;;;;;;;13.02;7.68;;;;;;;20.93;61.75;98904.53;4994353;28;20408;-85
2022/08/27 05:58:06;;;;;;;26.42;8.00;;;;;;;21.09;61.97;98921.81;4993857;28;20413;-85
2022/08/27 06:03:16;;;;;;;50.13;8.88;;;;;;;21.45;59.82;98907.25;5003714;28;20104;-85
2022/08/27 06:05:42;;;;;;;20.48;9.20;;;;;;;21.46;59.68;98899.53;4993468;28;20041;-85
2022/08/27 06:08:07;;;;;;;18.75;8.65;;;;;;;21.70;59.67;98916.75;5011504;28;20026;-85
2022/08/27 06:10:34;;;;;;;30.98;8.95;;;;;;;21.85;59.44;98908.84;4994022;28;20538;-85
2022/08/27 06:12:59;;;;;;;22.15;8.15;;;;;;;22.05;58.33;98909.00;4991877;28;20505;-85
2022/08/27 06:15:25;;;;;;;22.20;8.25;;;;;;;22.10;57.62;98893.47;4983687;28;20125;-85
2022/08/27 06:17:51;;;;;;;30.23;9.50;;;;;;;22.16;57.50;98903.97;4999174;28;20022;-86
2022/08/27 06:20:19;;;;;;;15.70;7.72;;;;;;;22.39;56.55;98907.28;4994023;28;20424;-85
2022/08/27 06:22:45;;;;;;;19.75;8.25;;;;;;;22.51;55.88;98897.41;4993237;28;20033;-85
2022/08/27 06:25:10;;;;;;;25.60;9.10;;;;;;;22.70;55.62;98912.97;4993529;28;20029;-85
2022/08/27 06:27:36;;;;;;;19.48;8.10;;;;;;;22.76;55.24;98901.88;4993409;28;20053;-84
2022/08/27 06:30:02;;;;;;;20.55;8.63;;;;;;;22.93;55.47;98908.53;5011304;28;20511;-84
2022/08/27 06:32:28;;;;;;;15.57;6.75;;;;;;;23.11;53.64;98908.22;5011205;28;20492;-84
2022/08/27 06:34:53;;;;;;;25.17;8.23;;;;;;;23.19;54.05;98897.47;4993550;28;20026;-84
2022/08/27 06:37:19;;;;;;;14.68;7.45;;;;;;;23.09;52.56;98888.66;5011107;28;20033;-85
2022/08/27 06:39:44;;;;;;;23.45;7.75;;;;;;;23.32;52.99;98912.75;4993597;28;20022;-85
2022/08/27 06:42:11;;;;;;;17.85;7.55;;;;;;;23.49;52.31;98915.69;4993361;28;20057;-85
2022/08/27 06:44:36;;;;;;;30.40;7.25;;;;;;;23.67;52.45;98916.16;4993515;28;20045;-84
2022/08/27 06:47:02;;;;;;;16.15;7.30;;;;;;;23.81;50.02;98917.88;4993397;28;20044;-84
2022/08/27 06:49:29;;;;;;;16.55;6.93;;;;;;;23.77;49.77;98907.78;4993129;28;20028;-85
2022/08/27 06:51:54;;;;;;;23.85;7.35;;;;;;;23.89;49.22;98907.13;5010855;28;20052;-84
2022/08/27 06:54:20;;;;;;;12.75;6.63;;;;;;;24.21;48.87;98922.78;4993159;28;20034;-84
2022/08/27 06:56:47;;;;;;;20.25;5.85;;;;;;;24.19;47.34;98913.03;4993276;28;20033;-84
2022/08/27 06:59:14;;;;;;;17.73;6.22;;;;;;;24.48;46.65;98921.75;4993140;28;20026;-85
2022/08/27 07:01:42;;;;;;;15.10;6.13;;;;;;;24.60;45.49;98922.31;4993465;28;20121;-85
2022/08/27 07:04:10;;;;;;;15.52;6.38;;;;;;;24.78;44.83;98917.00;4993294;28;20428;-84
2022/08/27 07:06:37;;;;;;;16.65;6.82;;;;;;;24.93;45.32;98913.78;4995979;28;20385;-84
2022/08/27 07:09:04;;;;;;;12.70;5.72;;;;;;;24.63;44.53;98890.00;5014512;28;20060;-84
2022/08/27 07:11:32;;;;;;;27.92;8.52;;;;;;;24.94;45.09;98901.91;4996648;28;20026;-84
2022/08/27 07:13:59;;;;;;;21.80;7.28;;;;;;;25.38;44.64;98918.75;4978065;28;20026;-85
2022/08/27 07:16:26;;;;;;;20.92;6.53;;;;;;;25.54;45.29;98917.13;4980450;28;20057;-86
2022/08/27 07:18:55;;;;;;;20.20;7.95;;;;;;;25.50;45.11;98907.81;4997001;28;20109;-85
2022/08/27 07:21:21;;;;;;;13.75;5.68;;;;;;;25.60;42.24;98918.19;4996552;28;20026;-85
2022/08/27 07:23:50;;;;;;;14.77;6.10;;;;;;;25.55;41.28;98912.19;4997318;28;20034;-85
2022/08/27 07:26:16;;;;;;;13.95;5.85;;;;;;;25.57;40.79;98899.03;4997257;28;20026;-85
2022/08/27 07:28:43;;;;;;;13.13;6.50;;;;;;;25.71;40.75;98879.84;4996023;28;20026;-85
2022/08/27 07:31:10;;;;;;;18.38;6.50;;;;;;;26.04;41.45;98911.19;5014686;28;20026;-85
2022/08/27 07:33:37;;;;;;;20.40;5.95;;;;;;;25.79;40.16;98878.38;4997196;28;20033;-84
2022/08/27 07:36:06;;;;;;;17.30;6.50;;;;;;;26.06;41.67;98898.03;4997123;28;20037;-84
2022/08/27 07:38:33;;;;;;;23.50;6.63;;;;;;;26.15;40.10;98903.06;5015681;28;20075;-85
2022/08/27 07:40:59;;;;;;;20.75;7.07;;;;;;;26.29;39.94;98921.09;4998369;28;20512;-84
2022/08/27 07:46:09;;;;;;;25.00;6.35;;;;;;;26.63;40.07;98916.75;5017897;28;20053;-84
2022/08/27 07:48:34;;;;;;;18.23;5.25;;;;;;;26.31;38.65;98907.16;5000289;28;20018;-85
2022/08/27 07:51:04;;;;;;;15.20;5.65;;;;;;;26.38;40.38;98895.44;4996874;28;20030;-84
2022/08/27 07:53:31;;;;;;;23.48;5.88;;;;;;;26.58;39.86;98903.81;4993122;28;20034;-84
2022/08/27 07:56:07;;;;;;;30.73;6.82;;;;;;;26.77;40.03;98898.28;4996271;28;20034;-85
2022/08/27 07:58:34;;;;;;;30.88;6.50;;;;;;;26.73;39.83;98915.63;5014136;28;20037;-85
2022/08/27 08:00:59;;;;;;;30.50;7.25;;;;;;;26.68;39.47;98901.88;5013902;28;20398;-85
2022/08/27 08:03:25;;;;;;;15.05;5.82;;;;;;;27.01;40.37;98913.06;4996213;28;20033;-84
2022/08/27 08:05:56;;;;;;;16.63;5.50;;;;;;;27.13;39.12;98907.75;4996128;28;20041;-86
2022/08/27 08:08:22;;;;;;;18.08;6.10;;;;;;;27.26;40.97;98899.91;4996244;28;20033;-85
2022/08/27 08:10:49;;;;;;;35.35;6.82;;;;;;;27.44;39.71;98907.09;4995881;28;20030;-86
2022/08/27 08:13:18;;;;;;;14.52;5.30;;;;;;;27.56;38.06;98900.53;4995934;28;20026;-85
2022/08/27 08:15:45;;;;;;;22.57;6.33;;;;;;;27.64;36.79;98903.16;4995723;28;20041;-88
2022/08/27 08:18:11;;;;;;;12.43;4.93;;;;;;;27.81;37.66;98901.69;4995544;28;20460;-86
2022/08/27 08:20:37;;;;;;;18.40;5.22;;;;;;;27.89;37.21;98900.16;4995633;28;20025;-85
2022/08/27 08:23:03;;;;;;;23.33;6.43;;;;;;;27.83;37.75;98890.50;5013252;28;20067;-85
2022/08/27 08:25:29;;;;;;;13.10;5.72;;;;;;;28.03;38.16;98904.53;4995675;28;20026;-85
2022/08/27 08:27:54;;;;;;;15.80;5.80;;;;;;;28.25;37.81;98902.94;5013281;28;20021;-84
2022/08/27 08:30:21;;;;;;;22.08;5.45;;;;;;;28.39;37.57;98902.34;4995900;28;20512;-84
2022/08/27 08:32:47;;;;;;;20.55;4.93;;;;;;;28.59;37.67;98909.78;4993700;28;20033;-85
2022/08/27 08:35:13;;;;;;;20.45;6.07;;;;;;;28.63;36.16;98904.69;4992368;28;20037;-84
2022/08/27 08:37:42;;;;;;;15.73;5.30;;;;;;;28.82;36.48;98905.56;4995605;28;20052;-84
2022/08/27 08:40:08;;;;;;;14.82;6.22;;;;;;;28.92;35.44;98903.50;4994659;28;20081;-84
2022/08/27 08:42:50;;;;;;;17.02;5.20;;;;;;;29.03;34.17;98905.97;5010693;28;20046;-84
2022/08/27 08:45:23;;;;;;;22.77;7.22;;;;;;;29.09;34.27;98901.16;4994729;28;20049;-84
2022/08/27 08:48:03;;;;;;;21.42;5.47;;;;;;;29.19;33.77;98887.56;5012948;28;20018;-84
2022/08/27 08:50:48;;;;;;;24.00;5.60;;;;;;;29.36;33.73;98910.31;4991853;28;20058;-84
2022/08/27 08:53:53;;;;;;;20.33;4.32;;;;;;;29.53;32.96;98902.97;4984932;28;20080;-84
2022/08/27 08:56:29;;;;;;;22.63;6.03;;;;;;;29.67;32.65;98898.66;4973033;28;20080;-84
2022/08/27 08:59:02;;;;;;;12.68;4.50;;;;;;;29.81;32.62;98908.72;4993866;28;20026;-84
2022/08/27 09:01:28;;;;;;;16.48;4.70;;;;;;;29.66;32.49;98873.19;4994095;28;20033;-84
2022/08/27 09:03:58;;;;;;;25.25;5.13;;;;;;;29.88;32.68;98901.84;4993264;28;20030;-84
2022/08/27 09:06:42;;;;;;;28.42;5.90;;;;;;;30.11;32.19;98900.38;4987798;28;20080;-85
2022/08/27 09:09:24;;;;;;;17.65;4.70;;;;;;;30.09;32.02;98885.63;4986641;28;20100;-84
2022/08/27 09:12:02;;;;;;;19.13;5.15;;;;;;;30.14;30.83;98892.84;4975243;28;20113;-84
2022/08/27 09:14:55;;;;;;;14.00;5.50;;;;;;;30.32;31.31;98894.84;4985796;28;20034;-84
2022/08/27 09:17:21;;;;;;;25.63;5.28;;;;;;;30.31;31.27;98895.34;4972666;28;20038;-84
2022/08/27 09:19:46;;;;;;;21.75;4.75;;;;;;;30.44;30.94;98889.38;4972800;28;20088;-84
2022/08/27 09:22:37;;;;;;;18.42;4.07;;;;;;;30.59;30.74;98898.09;4979266;28;20424;-85
2022/08/27 09:25:25;;;;;;;16.83;4.30;;;;;;;30.62;30.48;98889.28;4991911;28;20209;-85
2022/08/27 09:27:54;;;;;;;12.35;5.85;;;;;;;30.77;30.81;98892.28;4991610;28;20022;-85
2022/08/27 09:30:27;;;;;;;11.38;4.72;;;;;;;30.86;30.38;98900.06;4991919;28;20032;-85
2022/08/27 09:33:03;;;;;;;20.90;5.25;;;;;;;30.71;31.24;98894.25;4992166;28;20034;-85
2022/08/27 09:35:40;;;;;;;11.65;5.05;;;;;;;30.85;30.78;98892.72;4992017;28;20052;-85
2022/08/27 09:38:10;;;;;;;15.25;4.97;;;;;;;30.76;29.10;98869.66;4991874;28;20053;-85
2022/08/27 09:40:47;;;;;;;10.82;4.63;;;;;;;31.18;30.67;98891.06;4991748;28;20089;-85
2022/08/27 09:43:23;;;;;;;15.57;4.05;;;;;;;31.18;29.38;98891.88;4991570;28;20080;-85
2022/08/27 09:45:58;;;;;;;21.15;4.35;;;;;;;31.46;29.14;98880.09;4991529;28;20029;-85
2022/08/27 09:48:31;;;;;;;14.43;4.43;;;;;;;31.47;29.30;98883.81;4991409;28;20022;-85
2022/08/27 09:51:00;;;;;;;24.52;4.63;;;;;;;31.35;29.33;98883.59;4991634;28;20412;-85
2022/08/27 09:53:41;;;;;;;23.75;4.65;;;;;;;31.48;30.01;98886.19;4989762;28;20108;-85
2022/08/27 09:56:08;;;;;;;14.10;4.45;;;;;;;31.40;30.12;98878.41;4991418;28;20072;-84
2022/08/27 09:58:43;;;;;;;7.60;3.75;;;;;;;31.66;28.57;98885.22;4991778;28;20025;-85
2022/08/27 10:01:19;;;;;;;19.83;5.35;;;;;;;31.65;27.98;98880.75;4991303;28;20026;-85
2022/08/27 10:03:44;;;;;;;16.17;4.38;;;;;;;31.88;28.10;98868.84;4991347;28;20033;-85
2022/08/27 10:06:10;;;;;;;12.80;4.40;;;;;;;32.04;28.64;98885.69;5008808;28;20026;-85
2022/08/27 10:08:42;;;;;;;20.58;3.88;;;;;;;31.79;25.87;98861.84;4989716;28;20114;-85
2022/08/27 10:11:15;;;;;;;18.88;3.78;;;;;;;31.96;25.83;98880.81;4991387;28;20036;-85
2022/08/27 10:14:04;;;;;;;11.82;4.97;;;;;;;31.98;24.68;98876.13;4991258;28;20022;-85
2022/08/27 10:16:33;;;;;;;20.17;4.47;;;;;;;31.91;25.76;98868.63;5008920;28;20030;-86
2022/08/27 10:19:36;;;;;;;10.07;3.67;;;;;;;32.12;26.06;98874.50;4991270;28;20488;-85
2022/08/27 10:22:23;;;;;;;11.80;4.53;;;;;;;32.31;25.27;98871.41;4991290;28;20124;-85
2022/08/27 10:25:13;;;;;;;16.92;5.03;;;;;;;31.93;26.21;98873.91;4991243;28;20036;-85
2022/08/27 10:27:45;;;;;;;16.58;4.50;;;;;;;31.83;26.57;98876.13;4993418;28;20504;-85
2022/08/27 10:30:18;;;;;;;18.70;5.10;;;;;;;32.14;25.91;98868.25;4993884;28;20025;-85
2022/08/27 10:33:18;;;;;;;14.10;4.43;;;;;;;32.29;26.04;98874.03;4993790;28;20053;-86
2022/08/27 10:36:02;;;;;;;16.55;4.43;;;;;;;32.42;25.63;98867.94;5011382;28;20026;-85
2022/08/27 10:38:40;;;;;;;23.10;5.40;;;;;;;32.63;25.47;98875.38;4993630;28;20046;-85
2022/08/27 10:41:32;;;;;;;16.60;5.38;;;;;;;32.55;26.35;98871.28;4995843;28;20080;-86
2022/08/27 10:44:06;;;;;;;16.95;4.68;;;;;;;32.38;24.55;98870.25;4981499;28;20057;-85
2022/08/27 10:47:14;;;;;;;11.50;4.10;;;;;;;32.16;25.17;98874.31;4977869;28;20034;-86
2022/08/27 10:49:54;;;;;;;18.27;4.70;;;;;;;32.74;25.43;98874.72;4958260;28;20038;-86
2022/08/27 10:52:45;;;;;;;31.00;5.55;;;;;;;32.96;24.91;98878.50;4977742;28;20037;-85
2022/08/27 10:55:31;;;;;;;26.95;4.75;;;;;;;33.09;25.96;98869.44;4977970;28;20054;-85
2022/08/27 10:58:05;;;;;;;13.65;4.30;;;;;;;32.98;25.88;98864.31;4978543;28;20099;-86
2022/08/27 11:01:08;;;;;;;16.98;4.95;;;;;;;32.84;26.04;98866.72;4994993;28;20040;-86
2022/08/27 11:03:43;;;;;;;26.67;4.18;;;;;;;33.03;25.28;98869.34;4993611;28;20038;-85
2022/08/27 11:06:25;;;;;;;16.48;4.70;;;;;;;33.00;25.01;98862.47;4993873;28;20037;-85
2022/08/27 11:08:58;;;;;;;24.52;5.68;;;;;;;32.83;24.48;98864.31;4977738;28;20118;-86
2022/08/27 11:11:47;;;;;;;13.98;3.65;;;;;;;33.16;24.37;98869.78;4977641;28;20405;-86
2022/08/27 11:14:39;;;;;;;23.77;4.75;;;;;;;33.34;23.90;98867.91;4977455;28;20513;-86
2022/08/27 11:17:17;;;;;;;16.80;4.50;;;;;;;33.38;23.98;98859.00;5013043;28;20026;-86
2022/08/27 11:19:53;;;;;;;12.20;4.20;;;;;;;33.13;23.79;98855.56;4996797;28;20092;-86
2022/08/27 11:22:28;;;;;;;25.45;5.68;;;;;;;33.30;23.89;98856.53;4996744;28;20037;-85
2022/08/27 11:25:18;;;;;;;15.75;4.05;;;;;;;33.30;23.98;98855.72;4996757;28;20022;-86
2022/08/27 11:27:45;;;;;;;;;;;;;;;33.66;24.19;98859.31;4997143;28;20022;-86
2022/08/27 11:30:49;;;;;;;12.98;3.83;;;;;;;33.61;22.63;98851.38;4996595;28;19913;-85
2022/08/27 11:33:46;;;;;;;25.33;4.95;;;;;;;33.55;22.49;98853.44;4956972;28;20042;-86
2022/08/27 11:36:36;;;;;;;21.13;4.68;;;;;;;33.65;22.05;98846.13;4996910;28;20084;-85
2022/08/27 11:39:38;;;;;;;34.60;4.72;;;;;;;33.78;22.41;98844.94;4995946;28;20156;-87
2022/08/27 11:42:03;;;;;;;17.25;4.60;;;;;;;33.79;22.69;98843.63;5002961;28;20090;-86
2022/08/27 11:44:29;;;;;;;17.48;4.45;;;;;;;33.74;22.10;98831.47;5001547;28;20500;-87